Time;durP1;ratioP1;P1;durP2;ratioP2;P2;SDS_P1;SDS_P2;PMS_P1;PMS_P2;Temp;Humidity;BMP_temperature;BMP_pressure;BME280_temperature;BME280_humidity;BME280_pressure;Samples;Min_cycle;Max_cycle;Signal;HPM_P1;HPM_P2
2022/12/26 00:01:04;;;;;;;6.43;1.05;;;;;;;;;;5023724;28;20534;-74
2022/12/26 00:03:30;;;;;;;6.30;1.73;;;;;;;;;;5044065;28;20077;-74
2022/12/26 00:05:55;;;;;;;12.88;1.60;;;;;;;;;;5014141;28;20478;-73
2022/12/26 00:08:21;;;;;;;9.32;1.45;;;;;;;;;;5014693;28;20033;-74
2022/12/26 00:10:46;;;;;;;12.13;1.67;;;;;;;;;;5018516;28;20038;-74
2022/12/26 00:13:11;;;;;;;8.05;2.05;;;;;;;;;;5016881;28;20398;-73
2022/12/26 00:15:40;;;;;;;13.27;3.70;;;;;;;;;;5012110;28;20033;-74
2022/12/26 00:18:06;;;;;;;8.45;0.88;;;;;;;;;;5012157;28;20116;-74
2022/12/26 00:20:31;;;;;;;17.08;1.60;;;;;;;;;;5023449;28;20065;-74
2022/12/26 00:22:57;;;;;;;19.38;1.98;;;;;;;;;;5019347;28;20084;-74
2022/12/26 00:25:22;;;;;;;10.23;1.52;;;;;;;;;;5019527;28;20037;-74
2022/12/26 00:27:47;;;;;;;15.30;1.63;;;;;;;;;;5017065;28;20034;-74
2022/12/26 00:30:13;;;;;;;5.93;1.17;;;;;;;;;;5020299;28;20026;-74
2022/12/26 00:32:38;;;;;;;7.40;1.15;;;;;;;;;;5020740;28;20454;-74
2022/12/26 00:35:04;;;;;;;5.32;1.20;;;;;;;;;;5026579;28;20033;-74
2022/12/26 00:37:29;;;;;;;10.77;1.67;;;;;;;;;;5021341;28;20469;-74
2022/12/26 00:39:56;;;;;;;11.93;1.85;;;;;;;;;;5017287;28;20473;-74
2022/12/26 00:42:21;;;;;;;12.88;1.98;;;;;;;;;;5023968;28;20496;-73
2022/12/26 00:44:46;;;;;;;4.47;1.35;;;;;;;;;;5019713;28;20034;-74
2022/12/26 00:47:12;;;;;;;6.15;1.25;;;;;;;;;;5025163;28;20045;-74
2022/12/26 00:49:37;;;;;;;8.23;1.27;;;;;;;;;;5019474;28;20054;-74
2022/12/26 00:52:03;;;;;;;5.75;1.45;;;;;;;;;;5023575;28;20382;-74
2022/12/26 00:54:28;;;;;;;3.08;1.02;;;;;;;;;;5019192;28;20037;-74
2022/12/26 00:56:54;;;;;;;11.35;1.50;;;;;;;;;;5025632;28;20461;-74
2022/12/26 00:59:19;;;;;;;5.72;1.55;;;;;;;;;;5020698;28;20525;-73
2022/12/26 01:01:44;;;;;;;4.10;1.25;;;;;;;;;;5021214;28;20068;-73
2022/12/26 01:04:10;;;;;;;7.28;1.30;;;;;;;;;;5023476;28;20029;-73
2022/12/26 01:06:35;;;;;;;4.63;1.70;;;;;;;;;;5027189;28;20045;-74
2022/12/26 01:09:00;;;;;;;6.72;1.30;;;;;;;;;;5018448;28;20038;-74
2022/12/26 01:11:41;;;;;;;7.85;1.52;;;;;;;;;;5018333;28;20085;-73
2022/12/26 01:14:16;;;;;;;9.18;1.27;;;;;;;;;;5012033;28;20049;-74
2022/12/26 01:16:42;;;;;;;4.15;1.17;;;;;;;;;;5013049;28;20477;-74
2022/12/26 01:19:09;;;;;;;5.72;1.00;;;;;;;;;;5016991;28;20073;-74
2022/12/26 01:21:34;;;;;;;7.38;1.17;;;;;;;;;;5013492;28;20110;-74
2022/12/26 01:24:00;;;;;;;2.25;0.90;;;;;;;;;;5014886;28;20109;-74
2022/12/26 01:26:25;;;;;;;1.88;1.00;;;;;;;;;;5018117;28;20036;-74
2022/12/26 01:28:52;;;;;;;4.47;1.10;;;;;;;;;;5013120;28;20041;-73
2022/12/26 01:31:18;;;;;;;5.38;0.90;;;;;;;;;;5011428;28;20379;-74
2022/12/26 01:33:44;;;;;;;4.55;1.40;;;;;;;;;;5013133;28;20046;-74
2022/12/26 01:36:09;;;;;;;2.80;1.00;;;;;;;;;;5017011;28;20044;-74
2022/12/26 01:38:35;;;;;;;4.22;1.40;;;;;;;;;;5018563;28;20048;-73
2022/12/26 01:41:15;;;;;;;3.70;0.75;;;;;;;;;;5017891;28;20539;-73
2022/12/26 01:44:36;;;;;;;2.97;0.60;;;;;;;;;;5016565;28;20409;-75
2022/12/26 01:47:01;;;;;;;4.65;1.00;;;;;;;;;;5010896;28;20104;-74
2022/12/26 01:49:30;;;;;;;3.10;0.40;;;;;;;;;;5018612;28;20393;-73
2022/12/26 01:51:59;;;;;;;1.95;0.60;;;;;;;;;;5016809;28;20026;-74
2022/12/26 01:54:26;;;;;;;2.03;0.70;;;;;;;;;;5024567;28;20030;-74
2022/12/26 01:56:52;;;;;;;1.27;0.40;;;;;;;;;;5017264;28;20050;-75
2022/12/26 01:59:24;;;;;;;3.53;0.68;;;;;;;;;;5027563;28;20050;-74
2022/12/26 02:01:51;;;;;;;0.90;0.40;;;;;;;;;;5025809;28;20048;-74
2022/12/26 02:07:04;;;;;;;1.13;0.40;;;;;;;;;;5023008;28;20116;-73
2022/12/26 02:09:30;;;;;;;1.08;0.40;;;;;;;;;;5020674;28;20045;-73
2022/12/26 02:12:23;;;;;;;3.15;0.50;;;;;;;;;;5020437;28;20030;-73
2022/12/26 02:14:49;;;;;;;0.52;0.35;;;;;;;;;;5026035;28;20691;-73
2022/12/26 02:17:15;;;;;;;1.30;0.57;;;;;;;;;;5027521;28;20038;-72
2022/12/26 02:19:58;;;;;;;0.98;0.40;;;;;;;;;;5024846;28;20037;-73
2022/12/26 02:22:58;;;;;;;0.35;0.15;;;;;;;;;;5027821;28;20041;-73
2022/12/26 02:25:44;;;;;;;0.70;0.30;;;;;;;;;;5017513;28;20038;-72
2022/12/26 02:28:43;;;;;;;1.33;0.30;;;;;;;;;;5020704;28;20447;-72
2022/12/26 02:31:32;;;;;;;0.40;0.32;;;;;;;;;;5023110;28;20040;-72
2022/12/26 02:34:13;;;;;;;0.98;0.50;;;;;;;;;;5022235;28;20026;-73
2022/12/26 02:36:50;;;;;;;0.20;0.20;;;;;;;;;;5017809;28;20592;-73
2022/12/26 02:39:33;;;;;;;0.30;0.30;;;;;;;;;;5018684;28;20441;-72
2022/12/26 02:42:13;;;;;;;1.60;0.35;;;;;;;;;;5015817;28;20029;-73
2022/12/26 02:47:51;;;;;;;1.65;0.30;;;;;;;;;;5022800;28;20044;-72
2022/12/26 03:13:28;;;;;;;1.23;0.30;;;;;;;;;;5022278;28;20068;-72
2022/12/26 03:18:50;;;;;;;7.32;0.40;;;;;;;;;;5027570;28;20409;-72
2022/12/26 03:21:16;;;;;;;;;;;;;;;;;;5024924;28;20386;-72
2022/12/26 03:23:43;;;;;;;2.38;0.70;;;;;;;;;;5040600;28;19912;-72
2022/12/26 03:30:47;;;;;;;0.47;0.20;;;;;;;;;;5017809;28;20071;-73
2022/12/26 03:31:43;;;;;;;0.10;0.10;;;;;;;;;;5030363;28;20049;-72
2022/12/26 03:34:18;;;;;;;0.43;0.30;;;;;;;;;;5032279;28;20522;-72
2022/12/26 03:37:11;;;;;;;0.47;0.20;;;;;;;;;;5020619;28;20061;-72
2022/12/26 04:44:04;;;;;;;2.90;0.40;;;;;;;;;;5025179;28;20094;-73
2022/12/26 04:46:29;;;;;;;0.57;0.45;;;;;;;;;;5020876;28;20124;-72
2022/12/26 04:51:39;;;;;;;4.38;0.60;;;;;;;;;;5017384;28;20524;-73
2022/12/26 04:54:05;;;;;;;3.03;0.30;;;;;;;;;;5028646;28;20034;-72
2022/12/26 04:56:31;;;;;;;1.67;0.25;;;;;;;;;;5026765;28;20029;-72
2022/12/26 04:58:56;;;;;;;0.55;0.43;;;;;;;;;;5022232;28;20491;-72
2022/12/26 05:09:33;;;;;;;1.13;0.28;;;;;;;;;;5015924;28;20409;-72
2022/12/26 05:12:00;;;;;;;0.60;0.30;;;;;;;;;;5022918;28;20125;-72
2022/12/26 05:14:25;;;;;;;4.03;0.40;;;;;;;;;;5015489;28;20101;-73
2022/12/26 05:30:31;;;;;;;1.35;0.68;;;;;;;;;;5029835;28;20436;-72
2022/12/26 05:35:40;;;;;;;0.45;0.32;;;;;;;;;;5019638;28;20104;-73
2022/12/26 05:38:09;;;;;;;6.78;0.38;;;;;;;;;;5023687;28;20037;-72
2022/12/26 05:40:35;;;;;;;2.28;0.45;;;;;;;;;;5020498;28;20112;-72
2022/12/26 05:43:00;;;;;;;2.90;0.30;;;;;;;;;;5013274;28;20072;-73
2022/12/26 05:45:25;;;;;;;0.20;0.20;;;;;;;;;;5026371;28;20141;-72
2022/12/26 05:47:59;;;;;;;0.30;0.30;;;;;;;;;;5020958;28;20026;-72
2022/12/26 05:50:25;;;;;;;;;;;;;;;;;;5027995;28;20045;-72
2022/12/26 05:52:50;;;;;;;1.20;0.45;;;;;;;;;;5018887;28;19920;-72
2022/12/26 05:55:15;;;;;;;0.95;0.32;;;;;;;;;;5019175;28;20029;-72
2022/12/26 05:57:41;;;;;;;2.25;0.68;;;;;;;;;;5020022;28;20113;-73
2022/12/26 06:00:07;;;;;;;1.77;0.43;;;;;;;;;;5029241;28;20112;-73
2022/12/26 06:02:32;;;;;;;3.95;0.50;;;;;;;;;;5021702;28;20370;-73
2022/12/26 06:04:57;;;;;;;6.88;0.65;;;;;;;;;;5019726;28;20100;-73
2022/12/26 06:07:23;;;;;;;6.82;0.40;;;;;;;;;;5015053;28;20460;-72
2022/12/26 06:09:48;;;;;;;2.25;0.40;;;;;;;;;;5020852;28;20026;-72
2022/12/26 06:12:13;;;;;;;2.10;0.38;;;;;;;;;;5020721;28;20064;-72
2022/12/26 06:14:39;;;;;;;1.55;0.40;;;;;;;;;;5027030;28;20037;-73
2022/12/26 06:17:04;;;;;;;2.50;0.60;;;;;;;;;;5024619;28;20362;-73
2022/12/26 06:19:29;;;;;;;4.03;1.10;;;;;;;;;;5016857;28;20034;-72
2022/12/26 06:21:55;;;;;;;13.48;3.65;;;;;;;;;;5025150;28;20030;-72
2022/12/26 06:24:20;;;;;;;10.70;5.40;;;;;;;;;;5025188;28;20060;-73
2022/12/26 06:26:46;;;;;;;14.45;6.05;;;;;;;;;;5022779;28;20504;-72
2022/12/26 06:29:11;;;;;;;7.40;3.05;;;;;;;;;;5022305;28;20041;-73
2022/12/26 06:31:36;;;;;;;6.10;1.63;;;;;;;;;;5026031;28;20029;-72
2022/12/26 06:34:02;;;;;;;6.43;1.02;;;;;;;;;;5029902;28;20393;-73
2022/12/26 06:36:28;;;;;;;7.70;1.20;;;;;;;;;;5022660;28;20041;-73
2022/12/26 06:38:54;;;;;;;3.90;0.95;;;;;;;;;;5016645;28;20033;-72
2022/12/26 06:41:20;;;;;;;4.22;0.45;;;;;;;;;;5022009;28;20534;-73
2022/12/26 06:43:46;;;;;;;2.95;0.70;;;;;;;;;;5021136;28;20486;-72
2022/12/26 06:46:16;;;;;;;3.30;0.77;;;;;;;;;;5018767;28;20025;-72
2022/12/26 06:48:42;;;;;;;9.32;1.08;;;;;;;;;;5016711;28;20185;-72
2022/12/26 06:51:27;;;;;;;0.65;0.30;;;;;;;;;;5020262;28;20128;-72
2022/12/26 06:53:53;;;;;;;0.85;0.40;;;;;;;;;;5044994;28;20041;-72
2022/12/26 06:56:20;;;;;;;2.85;0.47;;;;;;;;;;5026360;28;20029;-72
2022/12/26 06:58:46;;;;;;;4.95;0.50;;;;;;;;;;5024115;28;20038;-72
2022/12/26 07:01:14;;;;;;;7.43;1.73;;;;;;;;;;5016329;28;20120;-72
2022/12/26 07:03:40;;;;;;;2.83;0.43;;;;;;;;;;5017043;28;20033;-72
2022/12/26 07:06:10;;;;;;;6.38;1.10;;;;;;;;;;5016595;28;20478;-73
2022/12/26 07:08:35;;;;;;;9.68;2.35;;;;;;;;;;5018847;28;20120;-72
2022/12/26 07:11:01;;;;;;;7.00;2.25;;;;;;;;;;5017796;28;20117;-73
2022/12/26 07:13:26;;;;;;;7.55;0.60;;;;;;;;;;5016754;28;20486;-72
2022/12/26 07:15:52;;;;;;;3.72;0.80;;;;;;;;;;5021236;28;20041;-73
2022/12/26 07:18:18;;;;;;;2.90;0.88;;;;;;;;;;5016330;28;20038;-73
2022/12/26 07:20:43;;;;;;;3.35;1.13;;;;;;;;;;5015249;28;20436;-73
2022/12/26 07:23:09;;;;;;;5.45;0.80;;;;;;;;;;5018899;28;20112;-72
2022/12/26 07:25:36;;;;;;;1.08;0.50;;;;;;;;;;5025412;28;20044;-72
2022/12/26 07:28:01;;;;;;;8.60;0.90;;;;;;;;;;5031343;28;20025;-72
2022/12/26 07:30:26;;;;;;;7.32;0.75;;;;;;;;;;5028128;28;20485;-72
2022/12/26 07:32:52;;;;;;;0.80;0.43;;;;;;;;;;5022111;28;20033;-72
2022/12/26 07:35:17;;;;;;;7.20;1.52;;;;;;;;;;5031432;28;20038;-73
2022/12/26 07:37:43;;;;;;;7.22;1.05;;;;;;;;;;5008612;28;20057;-73
2022/12/26 07:40:08;;;;;;;3.05;0.95;;;;;;;;;;5015259;28;20049;-73
2022/12/26 07:42:34;;;;;;;9.10;1.02;;;;;;;;;;5020644;28;20025;-73
2022/12/26 07:44:59;;;;;;;1.92;0.50;;;;;;;;;;5010128;28;20481;-72
2022/12/26 07:47:25;;;;;;;9.13;1.77;;;;;;;;;;5014456;28;20053;-72
2022/12/26 07:49:50;;;;;;;9.43;0.93;;;;;;;;;;5021693;28;20099;-73
2022/12/26 07:52:15;;;;;;;4.88;0.75;;;;;;;;;;5021438;28;20036;-72
2022/12/26 07:54:41;;;;;;;4.25;0.90;;;;;;;;;;5024100;28;20037;-73
2022/12/26 07:57:06;;;;;;;5.90;1.08;;;;;;;;;;5012486;28;20351;-72
2022/12/26 07:59:31;;;;;;;1.15;0.43;;;;;;;;;;5022274;28;20089;-73
2022/12/26 08:01:58;;;;;;;1.27;0.55;;;;;;;;;;5024287;28;20033;-74
2022/12/26 08:04:24;;;;;;;7.03;0.90;;;;;;;;;;5021052;28;20050;-72
2022/12/26 08:06:49;;;;;;;6.90;0.65;;;;;;;;;;5022136;28;20154;-73
2022/12/26 08:09:15;;;;;;;1.02;0.65;;;;;;;;;;5021215;28;20080;-72
2022/12/26 08:11:40;;;;;;;2.47;0.70;;;;;;;;;;5019742;28;20378;-72
2022/12/26 08:14:06;;;;;;;11.75;1.35;;;;;;;;;;5011999;28;20029;-74
2022/12/26 08:16:31;;;;;;;4.25;0.70;;;;;;;;;;5015636;28;20112;-72
2022/12/26 08:18:57;;;;;;;4.90;0.77;;;;;;;;;;5010401;28;20045;-73
2022/12/26 08:21:22;;;;;;;0.50;0.50;;;;;;;;;;5017048;28;20048;-72
2022/12/26 08:23:47;;;;;;;2.53;0.52;;;;;;;;;;5010869;28;20037;-73
2022/12/26 08:26:19;;;;;;;1.10;0.30;;;;;;;;;;5020597;28;20105;-73
2022/12/26 08:28:45;;;;;;;1.83;0.60;;;;;;;;;;5016584;28;20140;-72
2022/12/26 08:31:11;;;;;;;12.40;1.17;;;;;;;;;;5014785;28;20506;-73
2022/12/26 08:33:37;;;;;;;2.40;0.68;;;;;;;;;;5022164;28;20030;-73
2022/12/26 08:36:07;;;;;;;4.85;1.15;;;;;;;;;;5018042;28;20143;-73
2022/12/26 08:38:32;;;;;;;5.30;0.98;;;;;;;;;;5054411;28;20389;-72
2022/12/26 08:40:58;;;;;;;1.73;0.45;;;;;;;;;;5035217;28;20045;-73
2022/12/26 08:43:24;;;;;;;3.40;0.35;;;;;;;;;;5028053;28;20103;-72
2022/12/26 08:46:16;;;;;;;3.50;1.02;;;;;;;;;;5020845;28;20389;-73
2022/12/26 08:48:41;;;;;;;1.58;0.80;;;;;;;;;;5011437;28;20041;-73
2022/12/26 08:51:10;;;;;;;4.80;1.27;;;;;;;;;;5019973;28;20413;-73
2022/12/26 08:53:36;;;;;;;2.83;0.75;;;;;;;;;;5025472;28;20029;-72
2022/12/26 08:56:06;;;;;;;7.00;1.33;;;;;;;;;;5017411;28;20056;-73
2022/12/26 08:58:31;;;;;;;6.32;1.00;;;;;;;;;;5023226;28;20041;-73
2022/12/26 09:01:14;;;;;;;3.40;0.98;;;;;;;;;;5016234;28;20036;-73
2022/12/26 09:03:41;;;;;;;3.55;1.30;;;;;;;;;;5015334;28;20150;-73
2022/12/26 09:06:07;;;;;;;2.65;1.10;;;;;;;;;;5017332;28;20021;-73
2022/12/26 09:08:33;;;;;;;1.35;0.55;;;;;;;;;;5016052;28;20036;-72
2022/12/26 09:11:07;;;;;;;4.57;1.15;;;;;;;;;;5016606;28;20038;-72
2022/12/26 09:13:33;;;;;;;;;;;;;;;;;;5057486;28;20053;-72
2022/12/26 09:16:06;;;;;;;6.18;0.90;;;;;;;;;;5037046;28;19924;-73
2022/12/26 09:18:31;;;;;;;2.47;0.90;;;;;;;;;;5019727;28;20499;-73
2022/12/26 09:21:01;;;;;;;4.13;1.50;;;;;;;;;;5015238;28;20120;-73
2022/12/26 09:23:27;;;;;;;11.90;1.20;;;;;;;;;;5021783;28;20099;-72
2022/12/26 09:25:53;;;;;;;7.00;1.00;;;;;;;;;;5015869;28;21631;-73
2022/12/26 09:28:18;;;;;;;6.78;1.35;;;;;;;;;;5017169;28;20030;-73
2022/12/26 09:30:43;;;;;;;6.28;1.48;;;;;;;;;;5015848;28;20565;-73
2022/12/26 09:33:09;;;;;;;14.98;1.60;;;;;;;;;;5017037;28;20038;-73
2022/12/26 09:35:34;;;;;;;6.95;1.98;;;;;;;;;;5024228;28;20029;-74
2022/12/26 09:38:00;;;;;;;6.10;1.55;;;;;;;;;;5032599;28;20042;-73
2022/12/26 09:40:28;;;;;;;5.15;2.10;;;;;;;;;;5013951;28;20026;-73
2022/12/26 09:43:01;;;;;;;8.32;1.77;;;;;;;;;;5020577;28;20440;-73
2022/12/26 09:45:49;;;;;;;6.82;2.00;;;;;;;;;;5003289;28;20501;-74
2022/12/26 09:49:07;;;;;;;5.07;1.95;;;;;;;;;;5010956;28;20034;-74
2022/12/26 09:51:33;;;;;;;5.22;1.67;;;;;;;;;;5004775;28;20080;-74
2022/12/26 09:53:59;;;;;;;5.07;1.70;;;;;;;;;;5018173;28;20072;-73
2022/12/26 09:56:25;;;;;;;8.05;1.70;;;;;;;;;;5022379;28;20455;-73
2022/12/26 09:58:57;;;;;;;6.10;1.95;;;;;;;;;;5027010;28;20065;-73
2022/12/26 10:01:26;;;;;;;5.43;2.10;;;;;;;;;;5015950;28;20030;-72
2022/12/26 10:03:56;;;;;;;8.20;2.28;;;;;;;;;;5017690;28;20072;-73
2022/12/26 10:06:29;;;;;;;6.05;1.92;;;;;;;;;;5014416;28;20067;-73
2022/12/26 10:08:55;;;;;;;8.70;2.20;;;;;;;;;;5014014;28;20052;-73
2022/12/26 10:11:34;;;;;;;11.02;2.20;;;;;;;;;;5017717;28;20033;-74
2022/12/26 10:14:14;;;;;;;9.60;2.40;;;;;;;;;;5013991;28;20371;-74
2022/12/26 10:16:46;;;;;;;7.60;1.88;;;;;;;;;;5015226;28;20040;-75
2022/12/26 10:19:25;;;;;;;8.68;1.83;;;;;;;;;;5018197;28;20029;-75
2022/12/26 10:22:28;;;;;;;9.35;1.85;;;;;;;;;;5020582;28;20040;-73
2022/12/26 10:24:56;;;;;;;15.63;2.10;;;;;;;;;;5015808;28;20050;-73
2022/12/26 10:27:24;;;;;;;7.30;1.58;;;;;;;;;;5018356;28;20033;-73
2022/12/26 10:29:57;;;;;;;3.85;1.48;;;;;;;;;;4998117;28;20433;-75
2022/12/26 10:32:37;;;;;;;5.77;2.37;;;;;;;;;;5018607;28;20038;-75
2022/12/26 10:35:20;;;;;;;7.78;2.53;;;;;;;;;;5022473;28;20046;-75
2022/12/26 10:37:46;;;;;;;9.00;2.33;;;;;;;;;;5019846;28;20107;-75
2022/12/26 10:40:30;;;;;;;6.68;1.73;;;;;;;;;;5017412;28;20474;-74
2022/12/26 10:43:13;;;;;;;9.73;2.00;;;;;;;;;;5027017;28;20116;-75
2022/12/26 10:45:58;;;;;;;3.67;1.52;;;;;;;;;;5026900;28;20041;-74
2022/12/26 10:48:25;;;;;;;10.25;2.40;;;;;;;;;;5017083;28;20058;-75
2022/12/26 10:50:51;;;;;;;13.93;2.58;;;;;;;;;;5015238;28;20069;-74
2022/12/26 10:53:17;;;;;;;7.47;1.65;;;;;;;;;;5014908;28;20049;-74
2022/12/26 10:55:43;;;;;;;11.02;1.48;;;;;;;;;;5016617;28;20385;-75
2022/12/26 10:58:25;;;;;;;4.18;1.30;;;;;;;;;;5018235;28;20037;-75
2022/12/26 11:00:50;;;;;;;7.15;2.55;;;;;;;;;;5018742;28;20053;-74
2022/12/26 11:03:17;;;;;;;15.15;1.98;;;;;;;;;;5017219;28;20057;-75
2022/12/26 11:05:46;;;;;;;13.13;1.55;;;;;;;;;;5023636;28;20026;-74
2022/12/26 11:08:11;;;;;;;5.15;1.33;;;;;;;;;;5018740;28;20038;-75
2022/12/26 11:10:37;;;;;;;5.97;1.05;;;;;;;;;;5025561;28;20052;-74
2022/12/26 11:13:06;;;;;;;7.28;1.08;;;;;;;;;;5026498;28;20033;-74
2022/12/26 11:15:38;;;;;;;8.25;1.20;;;;;;;;;;5029486;28;20426;-74
2022/12/26 11:18:08;;;;;;;9.55;1.42;;;;;;;;;;5023996;28;20029;-74
2022/12/26 11:20:34;;;;;;;6.43;1.40;;;;;;;;;;5015111;28;20400;-74
2022/12/26 11:23:21;;;;;;;6.25;1.42;;;;;;;;;;5016567;28;20040;-74
2022/12/26 11:25:55;;;;;;;4.60;0.93;;;;;;;;;;5022825;28;20176;-74
2022/12/26 11:28:29;;;;;;;9.68;1.30;;;;;;;;;;5020779;28;20041;-74
2022/12/26 11:30:55;;;;;;;10.57;1.50;;;;;;;;;;5021885;28;20049;-74
2022/12/26 11:33:35;;;;;;;8.93;1.05;;;;;;;;;;5031145;28;20826;-74
2022/12/26 11:36:10;;;;;;;9.70;1.35;;;;;;;;;;5025543;28;20034;-74
2022/12/26 11:38:44;;;;;;;3.15;0.95;;;;;;;;;;5029320;28;20099;-73
2022/12/26 11:41:40;;;;;;;5.57;1.37;;;;;;;;;;5031275;28;20050;-74
2022/12/26 11:44:18;;;;;;;9.77;1.05;;;;;;;;;;5016184;28;20072;-74
2022/12/26 11:46:47;;;;;;;3.75;1.27;;;;;;;;;;5025642;28;20534;-74
2022/12/26 11:49:57;;;;;;;3.30;0.93;;;;;;;;;;5016967;28;20061;-74
2022/12/26 11:52:51;;;;;;;4.57;1.48;;;;;;;;;;5010330;28;20702;-75
2022/12/26 11:55:23;;;;;;;11.32;1.08;;;;;;;;;;5015010;28;20126;-74
2022/12/26 11:58:12;;;;;;;8.15;1.20;;;;;;;;;;5020715;28;20057;-74
2022/12/26 12:01:04;;;;;;;5.68;1.10;;;;;;;;;;5014965;28;20044;-75
2022/12/26 12:03:48;;;;;;;5.85;1.15;;;;;;;;;;5025392;28;20397;-75
2022/12/26 12:06:38;;;;;;;4.90;0.73;;;;;;;;;;5020095;28;20035;-74
2022/12/26 12:09:23;;;;;;;5.00;1.10;;;;;;;;;;5040441;28;20034;-76
2022/12/26 12:12:14;;;;;;;7.22;0.93;;;;;;;;;;5013638;28;20041;-75
2022/12/26 12:14:55;;;;;;;4.22;1.40;;;;;;;;;;5021904;28;20040;-75
2022/12/26 12:17:30;;;;;;;7.03;1.98;;;;;;;;;;5022579;28;20042;-75
2022/12/26 12:20:04;;;;;;;3.95;1.27;;;;;;;;;;5015302;28;20037;-74
2022/12/26 12:22:43;;;;;;;3.45;1.00;;;;;;;;;;5025324;28;20045;-74
2022/12/26 12:25:21;;;;;;;2.83;1.10;;;;;;;;;;5017170;28;20038;-74
2022/12/26 12:27:56;;;;;;;3.85;0.70;;;;;;;;;;5021876;28;20037;-75
2022/12/26 12:30:46;;;;;;;9.45;1.90;;;;;;;;;;5025173;28;20033;-74
2022/12/26 12:33:31;;;;;;;9.50;1.30;;;;;;;;;;5015035;28;20505;-74
2022/12/26 12:35:56;;;;;;;7.65;1.17;;;;;;;;;;5030327;28;20038;-75
2022/12/26 12:38:56;;;;;;;6.55;1.52;;;;;;;;;;5018466;28;20100;-73
2022/12/26 12:41:30;;;;;;;7.45;1.80;;;;;;;;;;5016821;28;20041;-74
2022/12/26 12:44:04;;;;;;;7.18;1.40;;;;;;;;;;5017492;28;20038;-73
2022/12/26 12:47:01;;;;;;;5.97;2.25;;;;;;;;;;5019728;28;20452;-74
2022/12/26 12:49:41;;;;;;;6.82;1.67;;;;;;;;;;5016295;28;20054;-74
2022/12/26 12:52:40;;;;;;;10.45;1.33;;;;;;;;;;5024365;28;20042;-74
2022/12/26 12:55:48;;;;;;;4.75;1.10;;;;;;;;;;5015559;28;20504;-74
2022/12/26 12:58:28;;;;;;;7.75;1.13;;;;;;;;;;5017443;28;20060;-75
2022/12/26 13:01:01;;;;;;;9.50;1.15;;;;;;;;;;5011948;28;20045;-75
2022/12/26 13:03:33;;;;;;;8.10;1.02;;;;;;;;;;5013525;28;20038;-74
2022/12/26 13:06:05;;;;;;;12.40;1.45;;;;;;;;;;5017857;28;20050;-74
2022/12/26 13:08:53;;;;;;;5.55;1.40;;;;;;;;;;5015052;28;20038;-74
2022/12/26 13:11:18;;;;;;;7.13;1.30;;;;;;;;;;5026549;28;20045;-74
2022/12/26 13:13:55;;;;;;;7.22;1.30;;;;;;;;;;5009807;28;20038;-73
2022/12/26 13:16:27;;;;;;;7.22;2.80;;;;;;;;;;5017684;28;20547;-73
2022/12/26 13:19:05;;;;;;;10.65;2.95;;;;;;;;;;5021113;28;20037;-74
2022/12/26 13:21:34;;;;;;;9.45;3.08;;;;;;;;;;5042737;28;20045;-74
2022/12/26 13:24:26;;;;;;;7.90;1.85;;;;;;;;;;5019026;28;20041;-74
2022/12/26 13:27:04;;;;;;;12.27;1.95;;;;;;;;;;5017819;28;20033;-74
2022/12/26 13:29:41;;;;;;;6.20;1.52;;;;;;;;;;5014483;28;20103;-74
2022/12/26 13:32:16;;;;;;;4.53;1.60;;;;;;;;;;5019340;28;20528;-74
2022/12/26 13:34:43;;;;;;;10.25;1.75;;;;;;;;;;5024307;28;20045;-73
2022/12/26 13:37:31;;;;;;;11.10;2.20;;;;;;;;;;5013977;28;20370;-74
2022/12/26 13:39:58;;;;;;;7.38;2.28;;;;;;;;;;5011277;28;20034;-74
2022/12/26 13:45:40;;;;;;;7.07;2.10;;;;;;;;;;5026932;28;20077;-75
2022/12/26 13:48:15;;;;;;;10.93;1.98;;;;;;;;;;5021442;28;20164;-74
2022/12/26 13:50:48;;;;;;;6.03;2.05;;;;;;;;;;5021731;28;20038;-74
2022/12/26 13:53:25;;;;;;;4.32;1.20;;;;;;;;;;5023038;28;20509;-74
2022/12/26 13:56:01;;;;;;;6.25;1.50;;;;;;;;;;5029608;28;20042;-74
2022/12/26 13:58:59;;;;;;;3.90;1.48;;;;;;;;;;5020093;28;20038;-73
2022/12/26 14:01:33;;;;;;;10.23;1.27;;;;;;;;;;5017794;28;20156;-73
2022/12/26 14:04:16;;;;;;;8.05;1.55;;;;;;;;;;5015951;28;20049;-73
2022/12/26 14:07:17;;;;;;;9.32;2.50;;;;;;;;;;5011896;28;20688;-73
2022/12/26 14:10:20;;;;;;;4.97;2.00;;;;;;;;;;5005801;28;20060;-73
2022/12/26 14:12:50;;;;;;;8.07;1.80;;;;;;;;;;5023945;28;20108;-73
2022/12/26 14:15:25;;;;;;;6.40;1.42;;;;;;;;;;5019762;28;20049;-73
2022/12/26 14:17:56;;;;;;;11.38;2.05;;;;;;;;;;5020438;28;20049;-73
2022/12/26 14:20:43;;;;;;;6.93;1.70;;;;;;;;;;5019929;28;20046;-74
2022/12/26 14:23:26;;;;;;;6.80;1.42;;;;;;;;;;5026692;28;20491;-73
2022/12/26 14:26:02;;;;;;;8.77;2.58;;;;;;;;;;5014597;28;21014;-73
2022/12/26 14:28:58;;;;;;;16.50;3.60;;;;;;;;;;5026408;28;20045;-73
2022/12/26 14:31:34;;;;;;;4.70;2.20;;;;;;;;;;5018847;28;20067;-73
2022/12/26 14:34:18;;;;;;;6.28;1.75;;;;;;;;;;5024566;28;20400;-73
2022/12/26 14:36:43;;;;;;;6.43;2.60;;;;;;;;;;5022598;28;20108;-73
2022/12/26 14:39:16;;;;;;;10.85;2.25;;;;;;;;;;5028877;28;20489;-73
2022/12/26 14:44:55;;;;;;;10.35;2.00;;;;;;;;;;5010840;28;20413;-73
2022/12/26 14:47:47;;;;;;;7.00;1.77;;;;;;;;;;5030165;28;20042;-73
2022/12/26 14:50:31;;;;;;;4.18;1.77;;;;;;;;;;5012293;28;20041;-73
2022/12/26 14:53:35;;;;;;;5.93;1.95;;;;;;;;;;5023176;28;20053;-73
2022/12/26 14:56:09;;;;;;;2.75;1.10;;;;;;;;;;4993679;28;20054;-73
2022/12/26 14:58:48;;;;;;;7.25;2.22;;;;;;;;;;5015187;28;20467;-73
2022/12/26 15:01:22;;;;;;;11.38;4.53;;;;;;;;;;5018293;28;20175;-74
2022/12/26 15:04:12;;;;;;;11.30;4.57;;;;;;;;;;5019475;28;20050;-73
2022/12/26 15:07:33;;;;;;;11.00;4.85;;;;;;;;;;5014354;28;20112;-73
2022/12/26 15:10:27;;;;;;;5.57;2.85;;;;;;;;;;5003183;28;20042;-73
2022/12/26 15:13:18;;;;;;;6.25;1.33;;;;;;;;;;5015417;28;20061;-73
2022/12/26 15:16:05;;;;;;;6.38;1.75;;;;;;;;;;5019896;28;20080;-73
2022/12/26 15:19:07;;;;;;;5.68;1.50;;;;;;;;;;5028011;28;20049;-73
2022/12/26 15:21:41;;;;;;;5.32;2.20;;;;;;;;;;5008105;28;20491;-73
2022/12/26 15:24:06;;;;;;;;;;;;;;;;;;5017868;28;20037;-73
2022/12/26 15:26:41;;;;;;;7.18;1.73;;;;;;;;;;5024585;28;19963;-73
2022/12/26 15:29:24;;;;;;;3.40;1.20;;;;;;;;;;5021630;28;20037;-73
2022/12/26 15:31:57;;;;;;;4.30;1.70;;;;;;;;;;5030254;28;20488;-73
2022/12/26 15:34:44;;;;;;;3.53;1.60;;;;;;;;;;5033834;28;20029;-73
2022/12/26 15:37:16;;;;;;;5.20;1.23;;;;;;;;;;5014623;28;20397;-73
2022/12/26 15:39:59;;;;;;;8.00;1.65;;;;;;;;;;5019899;28;20045;-72
2022/12/26 15:42:33;;;;;;;8.57;1.92;;;;;;;;;;5019059;28;20053;-72
2022/12/26 15:45:40;;;;;;;6.60;3.28;;;;;;;;;;5016877;28;20029;-73
2022/12/26 15:48:36;;;;;;;7.32;2.15;;;;;;;;;;5014629;28;20034;-74
2022/12/26 15:51:17;;;;;;;14.40;4.78;;;;;;;;;;5027521;28;20034;-73
2022/12/26 15:53:43;;;;;;;12.32;1.70;;;;;;;;;;5018835;28;20040;-73
2022/12/26 15:56:14;;;;;;;7.35;3.33;;;;;;;;;;5017069;28;20038;-73
2022/12/26 15:59:05;;;;;;;15.18;5.30;;;;;;;;;;5027496;28;20413;-73
2022/12/26 16:01:52;;;;;;;11.43;2.97;;;;;;;;;;5026125;28;20038;-72
2022/12/26 16:04:26;;;;;;;11.30;3.03;;;;;;;;;;5022543;28;20048;-72
2022/12/26 16:07:46;;;;;;;8.70;2.78;;;;;;;;;;5036290;28;20037;-72
2022/12/26 16:10:24;;;;;;;5.15;2.15;;;;;;;;;;5006244;28;20509;-73
2022/12/26 16:13:12;;;;;;;8.10;2.70;;;;;;;;;;5023251;28;20041;-72
2022/12/26 16:15:45;;;;;;;11.20;4.05;;;;;;;;;;5015911;28;20129;-73
2022/12/26 16:18:16;;;;;;;8.35;2.40;;;;;;;;;;5019881;28;20112;-73
2022/12/26 16:23:26;;;;;;;;;;;;;;;;;;5021685;28;20132;-73
2022/12/26 16:25:54;;;;;;;17.60;3.28;;;;;;;;;;5038078;28;19913;-73
2022/12/26 16:28:38;;;;;;;10.30;2.67;;;;;;;;;;5022149;28;20029;-74
2022/12/26 16:31:04;;;;;;;14.25;4.22;;;;;;;;;;5017810;28;20095;-73
2022/12/26 16:33:41;;;;;;;11.38;3.13;;;;;;;;;;5021041;28;20022;-73
2022/12/26 16:36:08;;;;;;;6.22;2.30;;;;;;;;;;5023157;28;20057;-74
2022/12/26 16:38:34;;;;;;;6.15;2.90;;;;;;;;;;5019790;28;20030;-73
2022/12/26 16:40:59;;;;;;;13.32;5.93;;;;;;;;;;5027245;28;20392;-73
2022/12/26 16:43:33;;;;;;;12.38;3.47;;;;;;;;;;5028235;28;20045;-73
2022/12/26 16:46:01;;;;;;;11.10;3.63;;;;;;;;;;5025376;28;20079;-73
2022/12/26 16:48:30;;;;;;;9.50;3.92;;;;;;;;;;5015188;28;20132;-73
2022/12/26 16:51:00;;;;;;;11.38;4.53;;;;;;;;;;5023585;28;20100;-73
2022/12/26 16:53:35;;;;;;;19.35;7.05;;;;;;;;;;5025015;28;20038;-73
2022/12/26 16:56:22;;;;;;;17.05;8.45;;;;;;;;;;5005786;28;20028;-73
2022/12/26 16:58:52;;;;;;;24.20;12.25;;;;;;;;;;5013846;28;20450;-73
2022/12/26 17:01:19;;;;;;;23.60;9.40;;;;;;;;;;5022945;28;20037;-73
2022/12/26 17:04:03;;;;;;;18.17;7.03;;;;;;;;;;5027119;28;20063;-73
2022/12/26 17:06:32;;;;;;;15.23;6.20;;;;;;;;;;5026102;28;20049;-73
2022/12/26 17:09:03;;;;;;;11.27;4.25;;;;;;;;;;5023066;28;20036;-73
2022/12/26 17:11:30;;;;;;;13.20;4.00;;;;;;;;;;5025714;28;20032;-73
2022/12/26 17:13:56;;;;;;;9.98;4.82;;;;;;;;;;5025203;28;20038;-73
2022/12/26 17:16:26;;;;;;;7.43;4.35;;;;;;;;;;5023645;28;20474;-73
2022/12/26 17:18:54;;;;;;;19.20;3.35;;;;;;;;;;5019682;28;20029;-73
2022/12/26 17:21:30;;;;;;;6.72;3.33;;;;;;;;;;5015747;28;20072;-73
2022/12/26 17:24:25;;;;;;;9.20;3.50;;;;;;;;;;5022998;28;20030;-73
2022/12/26 17:27:15;;;;;;;14.88;7.00;;;;;;;;;;5013576;28;20482;-74
2022/12/26 17:29:49;;;;;;;13.43;3.90;;;;;;;;;;5013945;28;20113;-73
2022/12/26 17:32:24;;;;;;;15.70;3.88;;;;;;;;;;5019841;28;20124;-73
2022/12/26 17:34:49;;;;;;;9.25;4.32;;;;;;;;;;5024757;28;20072;-72